Thatta, Pakistan
Current Conditions -  °F | °C
As of 8:55 AM on Saturday 01 Nov 2014 (Local Time) from OPKC Reporting Station
Haze Haze  
Wind Chill: 77°   Ceiling: Unl
Heat Index: 79°   Visibility: 3mi
Dew Point: 63°   Wind: 6mph
Humidity: 61%   Direction: 70°ENE
Pressure: 29.97"   Gusts: NA
Location:  24.75°N, 67.92°E
Report Text: OPKC 010355Z 07005KT 5000 HZ SCT100 25/17 Q1015 NOSIG
Loading
Personal Weather Stations






























Interactive Weather Map
Tropical Storm Tracking
New forecast layout! Learn more

10-Day Weather Forecast

Advertisements
Track Severe Weather on mobile